createdAt,value
2018-09-19T00:00:53.071Z,70.96
2018-09-19T00:01:53.100Z,70.57
2018-09-19T00:02:53.124Z,69.90
2018-09-19T00:03:53.125Z,70.48
2018-09-19T00:04:53.154Z,69.90
2018-09-19T00:05:53.172Z,70.00
2018-09-19T00:06:53.237Z,69.81
2018-09-19T00:07:53.208Z,68.95
2018-09-19T00:08:53.224Z,69.42
2018-09-19T00:09:53.247Z,68.95
2018-09-19T00:10:53.262Z,68.85
2018-09-19T00:11:53.284Z,69.23
2018-09-19T00:12:53.309Z,70.00
2018-09-19T00:13:53.323Z,71.05
2018-09-19T00:14:53.344Z,70.09
2018-09-19T00:15:53.365Z,69.42
2018-09-19T00:16:53.380Z,69.52
2018-09-19T00:17:53.412Z,70.86
2018-09-19T00:18:53.422Z,69.33
2018-09-19T00:19:53.438Z,68.46
2018-09-19T00:20:53.456Z,69.04
2018-09-19T00:21:53.507Z,69.62
2018-09-19T00:22:53.495Z,68.56
2018-09-19T00:23:53.520Z,67.50
2018-09-19T00:24:53.535Z,66.93
2018-09-19T00:25:53.553Z,65.97
2018-09-19T00:26:53.573Z,65.01
2018-09-19T00:27:53.593Z,64.89
2018-09-19T00:28:53.618Z,65.08
2018-09-19T00:29:53.633Z,63.48
2018-09-19T00:30:53.654Z,63.54
2018-09-19T00:31:53.671Z,62.77
2018-09-19T00:32:53.683Z,63.35
2018-09-19T00:33:53.705Z,63.64
2018-09-19T00:34:53.725Z,63.35
2018-09-19T00:35:53.743Z,63.35
2018-09-19T00:36:53.768Z,63.54
2018-09-19T00:37:53.791Z,63.73
2018-09-19T00:38:53.807Z,63.64
2018-09-19T00:39:53.819Z,63.35
2018-09-19T00:40:53.842Z,63.06
2018-09-19T00:41:53.860Z,63.16
2018-09-19T00:42:53.880Z,62.30
2018-09-19T00:43:53.901Z,62.68
2018-09-19T00:44:53.916Z,62.49
2018-09-19T00:45:53.933Z,62.30
2018-09-19T00:46:53.962Z,62.68
2018-09-19T00:47:53.979Z,62.68
2018-09-19T00:48:53.995Z,62.77
2018-09-19T00:49:54.010Z,62.20
2018-09-19T00:50:54.055Z,61.91
2018-09-19T00:51:54.066Z,62.20
2018-09-19T00:52:54.069Z,63.54
2018-09-19T00:53:54.087Z,64.22
2018-09-19T00:54:54.117Z,64.22
2018-09-19T00:55:54.125Z,65.08
2018-09-19T00:56:54.157Z,66.80
2018-09-19T00:57:54.162Z,67.66
2018-09-19T00:58:54.190Z,67.95
2018-09-19T00:59:54.210Z,70.44
2018-09-19T01:00:54.225Z,69.13
2018-09-19T01:01:54.246Z,67.32
2018-09-19T01:02:54.263Z,67.38
2018-09-19T01:03:54.288Z,66.64
2018-09-19T01:04:54.305Z,67.41
2018-09-19T01:05:54.317Z,67.76
2018-09-19T01:06:54.334Z,68.08
2018-09-19T01:07:54.353Z,66.89
2018-09-19T01:08:54.374Z,67.02
2018-09-19T01:09:54.400Z,66.61
2018-09-19T01:10:54.413Z,67.79
2018-09-19T01:11:54.435Z,67.79
2018-09-19T01:12:54.450Z,67.69
2018-09-19T01:13:54.472Z,68.56
2018-09-19T01:14:54.494Z,67.99
2018-09-19T01:15:54.511Z,67.79
2018-09-19T01:16:54.530Z,68.37
2018-09-19T01:17:54.550Z,67.41
2018-09-19T01:18:54.566Z,67.41
2018-09-19T01:19:54.586Z,67.79
2018-09-19T01:20:54.612Z,67.69
2018-09-19T01:21:54.627Z,68.66
2018-09-19T01:22:54.647Z,67.22
2018-09-19T01:23:54.668Z,66.83
2018-09-19T01:24:54.687Z,66.74
2018-09-19T01:25:54.700Z,67.12
2018-09-19T01:26:54.716Z,66.83
2018-09-19T01:27:54.782Z,66.83
2018-09-19T01:28:54.763Z,67.32
2018-09-19T01:29:54.780Z,67.41
2018-09-19T01:30:54.801Z,67.60
2018-09-19T01:31:54.815Z,67.89
2018-09-19T01:32:54.831Z,68.08
2018-09-19T01:33:54.855Z,69.71
2018-09-19T01:34:54.871Z,67.50
2018-09-19T01:35:54.888Z,66.74
2018-09-19T01:36:54.909Z,65.94
2018-09-19T01:37:54.932Z,65.78
2018-09-19T01:38:54.954Z,65.30
2018-09-19T01:39:54.971Z,64.63
2018-09-19T01:40:54.989Z,64.69
2018-09-19T01:41:55.009Z,63.83
2018-09-19T01:42:55.026Z,63.92
2018-09-19T01:43:55.046Z,64.72
2018-09-19T01:44:55.060Z,63.86
2018-09-19T01:45:55.084Z,63.67
2018-09-19T01:46:55.111Z,63.57
2018-09-19T01:47:55.121Z,63.64
2018-09-19T01:48:55.143Z,63.26
2018-09-19T01:49:55.157Z,62.87
2018-09-19T01:50:55.176Z,62.30
2018-09-19T01:51:55.207Z,62.30
2018-09-19T01:52:55.215Z,62.01
2018-09-19T01:53:55.248Z,61.63
2018-09-19T01:54:55.254Z,61.43
2018-09-19T01:55:55.273Z,61.05
2018-09-19T01:56:55.292Z,62.59
2018-09-19T01:57:55.314Z,61.53
2018-09-19T01:58:55.330Z,61.91
2018-09-19T01:59:55.348Z,62.01
2018-09-19T02:00:55.367Z,61.91
2018-09-19T02:01:55.389Z,61.53
2018-09-19T02:02:55.411Z,62.10
2018-09-19T02:03:55.434Z,60.86
2018-09-19T02:04:55.443Z,60.38
2018-09-19T02:05:55.465Z,60.28
2018-09-19T02:06:55.487Z,59.80
2018-09-19T02:07:55.500Z,59.80
2018-09-19T02:08:55.525Z,60.38
2018-09-19T02:09:55.541Z,60.38
2018-09-19T02:10:55.564Z,60.86
2018-09-19T02:11:55.580Z,61.34
2018-09-19T02:12:55.603Z,61.53
2018-09-19T02:13:55.622Z,60.96
2018-09-19T02:14:55.635Z,61.43
2018-09-19T02:15:55.659Z,60.47
2018-09-19T02:16:55.674Z,60.38
2018-09-19T02:17:55.692Z,59.61
2018-09-19T02:18:55.712Z,59.23
2018-09-19T02:19:55.729Z,58.84
2018-09-19T02:20:55.748Z,58.56
2018-09-19T02:21:55.767Z,58.65
2018-09-19T02:22:55.791Z,59.90
2018-09-19T02:23:55.809Z,59.80
2018-09-19T02:24:55.864Z,58.84
2018-09-19T02:25:55.846Z,58.08
2018-09-19T02:26:55.868Z,56.16
2018-09-19T02:27:55.886Z,55.78
2018-09-19T02:28:55.904Z,56.16
2018-09-19T02:29:55.919Z,55.85
2018-09-19T02:30:55.941Z,56.16
2018-09-19T02:31:55.959Z,55.94
2018-09-19T02:32:55.976Z,56.13
2018-09-19T02:33:56.003Z,55.75
2018-09-19T02:34:56.019Z,55.56
2018-09-19T02:35:56.034Z,55.18
2018-09-19T02:36:56.055Z,55.46
2018-09-19T02:37:56.077Z,54.70
2018-09-19T02:38:56.090Z,54.22
2018-09-19T02:39:56.110Z,53.07
2018-09-19T02:40:56.146Z,52.78
2018-09-19T02:41:56.157Z,52.30
2018-09-19T02:42:56.180Z,52.11
2018-09-19T02:43:56.188Z,51.92
2018-09-19T02:44:56.212Z,51.06
2018-09-19T02:45:56.223Z,50.38
2018-09-19T02:46:56.247Z,50.00
2018-09-19T02:47:56.266Z,49.14
2018-09-19T02:48:56.282Z,49.31
2018-09-19T02:49:56.297Z,49.14
2018-09-19T02:50:56.320Z,48.66
2018-09-19T02:51:56.339Z,47.87
2018-09-19T02:52:56.356Z,47.58
2018-09-19T02:53:56.375Z,47.78
2018-09-19T02:54:56.401Z,48.54
2018-09-19T02:55:56.411Z,48.64
2018-09-19T02:56:56.432Z,48.44
2018-09-19T02:57:56.452Z,47.68
2018-09-19T02:58:56.474Z,47.58
2018-09-19T02:59:56.487Z,47.20
2018-09-19T03:00:56.507Z,47.49
2018-09-19T03:01:56.525Z,46.82
2018-09-19T03:02:56.544Z,47.11
2018-09-19T03:03:56.560Z,47.49
2018-09-19T03:04:56.585Z,48.07
2018-09-19T03:05:56.601Z,47.61
2018-09-19T03:06:56.619Z,47.58
2018-09-19T03:07:56.636Z,48.16
2018-09-19T03:08:56.656Z,48.57
2018-09-19T03:39:41.937Z,50.20
2018-09-19T03:40:41.943Z,49.91
2018-09-19T03:42:34.057Z,50.96
2018-09-19T03:43:34.041Z,51.15
2018-09-19T03:45:25.947Z,53.16
2018-09-19T03:46:25.963Z,54.22
2018-09-19T03:48:17.883Z,52.87
2018-09-19T03:49:17.874Z,54.50
2018-09-19T03:51:09.825Z,54.60
2018-09-19T03:52:09.805Z,54.89
2018-09-19T03:54:02.206Z,54.60
2018-09-19T03:55:02.222Z,54.41
2018-09-19T03:56:54.158Z,54.41
2018-09-19T03:57:54.157Z,53.36
2018-09-19T03:59:46.063Z,53.26
2018-09-19T04:00:46.074Z,54.03
2018-09-19T04:02:38.023Z,55.58
2018-09-19T04:03:38.008Z,55.56
2018-09-19T04:05:29.942Z,56.26
2018-09-19T04:06:29.954Z,56.35
2018-09-19T04:08:21.888Z,57.89
2018-09-19T04:09:21.879Z,56.74
2018-09-19T04:11:13.875Z,57.41
2018-09-19T04:12:13.804Z,58.27
2018-09-19T04:14:05.727Z,57.79
2018-09-19T04:15:05.746Z,57.79
2018-09-19T04:16:57.683Z,58.17
2018-09-19T04:17:57.759Z,58.37
2018-09-19T04:19:49.598Z,58.84
2018-09-19T04:20:49.604Z,59.52
2018-09-19T04:22:41.543Z,59.52
2018-09-19T04:23:41.537Z,59.13
2018-09-19T04:25:33.449Z,59.04
2018-09-19T04:26:33.479Z,59.52
2018-09-19T04:28:25.406Z,58.56
2018-09-19T04:29:25.397Z,58.94
2018-09-19T04:31:17.311Z,58.94
2018-09-19T04:32:17.399Z,57.98
2018-09-19T04:34:09.267Z,59.04
2018-09-19T04:35:09.269Z,59.04
2018-09-19T04:37:01.208Z,59.90
2018-09-19T04:38:01.193Z,59.80
2018-09-19T04:39:53.115Z,59.13
2018-09-19T04:40:53.126Z,58.46
2018-09-19T04:42:45.065Z,58.94
2018-09-19T04:43:45.059Z,57.98
2018-09-19T04:45:36.978Z,55.97
2018-09-19T04:46:36.996Z,56.16
2018-09-19T04:48:28.936Z,55.49
2018-09-19T04:49:28.924Z,55.68
2018-09-19T04:51:20.948Z,56.16
2018-09-19T04:52:20.872Z,55.87
2018-09-19T04:54:12.804Z,56.45
2018-09-19T04:55:12.791Z,57.03
2018-09-19T04:57:04.735Z,58.65
2018-09-19T04:58:04.736Z,57.60
2018-09-19T04:59:56.653Z,58.84
2018-09-19T05:00:56.670Z,58.75
2018-09-19T05:02:48.612Z,59.52
2018-09-19T05:03:48.604Z,59.33
2018-09-19T05:05:40.551Z,60.57
2018-09-19T05:06:40.532Z,60.19
2018-09-19T05:08:32.516Z,61.15
2018-09-19T05:09:32.509Z,61.37
2018-09-19T05:11:24.471Z,59.83
2018-09-19T05:12:24.446Z,60.60
2018-09-19T05:14:16.398Z,60.03
2018-09-19T05:15:16.378Z,59.74
2018-09-19T05:17:08.377Z,59.90
2018-09-19T05:18:08.363Z,59.04
2018-09-19T05:20:00.344Z,58.65
2018-09-19T05:21:00.312Z,58.84
2018-09-19T05:22:52.381Z,59.04
2018-09-19T05:23:52.346Z,58.97
2018-09-19T05:25:44.260Z,58.78
2018-09-19T05:26:44.825Z,59.16
2018-09-19T05:28:36.314Z,60.00
2018-09-19T05:29:36.309Z,61.05
2018-09-19T05:31:28.252Z,61.08
2018-09-19T05:32:28.248Z,61.15
2018-09-19T05:34:20.345Z,62.62
2018-09-19T05:35:20.284Z,63.38
2018-09-19T05:37:12.709Z,63.48
2018-09-19T05:38:12.706Z,62.81
2018-09-19T05:40:04.625Z,62.81
2018-09-19T05:41:04.636Z,64.34
2018-09-19T05:42:56.608Z,63.19
2018-09-19T05:43:56.608Z,63.86
2018-09-19T05:45:48.520Z,64.15
2018-09-19T05:46:48.544Z,63.76
2018-09-19T05:48:40.479Z,65.91
2018-09-19T05:49:40.489Z,65.81
2018-09-19T05:51:32.397Z,66.19
2018-09-19T05:52:32.411Z,66.10
2018-09-19T05:54:24.424Z,67.83
2018-09-19T05:55:24.355Z,67.25
2018-09-19T05:57:16.434Z,68.12
2018-09-19T05:58:16.426Z,67.83
2018-09-19T06:00:08.364Z,69.07
2018-09-19T06:01:08.375Z,69.65
2018-09-19T06:03:00.326Z,70.51
2018-09-19T06:04:00.331Z,70.17
2018-09-19T06:05:52.271Z,70.74
2018-09-19T06:06:52.264Z,69.87
2018-09-19T06:08:44.202Z,70.55
2018-09-19T06:09:44.247Z,71.51
2018-09-19T06:10:44.218Z,72.37
2018-09-19T06:11:44.235Z,73.62
2018-09-19T06:12:44.305Z,74.01
2018-09-19T06:13:44.276Z,73.91
2018-09-19T06:14:44.298Z,73.91
2018-09-19T06:15:44.315Z,73.81
2018-09-19T06:16:44.333Z,74.48
2018-09-19T06:17:44.355Z,75.10
2018-09-19T06:18:44.374Z,75.25
2018-09-19T06:19:44.415Z,75.38
2018-09-19T06:20:44.440Z,75.67
2018-09-19T06:21:44.449Z,76.25
2018-09-19T06:22:44.469Z,75.48
2018-09-19T06:23:44.488Z,76.15
2018-09-19T06:24:44.507Z,76.25
2018-09-19T06:25:44.537Z,76.92
2018-09-19T06:26:44.562Z,76.82
2018-09-19T06:27:44.578Z,76.54
2018-09-19T06:28:44.569Z,77.78
2018-09-19T06:29:44.588Z,79.36
2018-09-19T06:30:44.610Z,80.32
2018-09-19T06:31:44.640Z,80.71
2018-09-19T06:32:44.713Z,81.28
2018-09-19T06:33:44.671Z,84.01
2018-09-19T06:34:44.694Z,86.13
2018-09-19T06:35:44.708Z,88.67
2018-09-19T06:36:44.730Z,91.27
2018-09-19T06:37:44.757Z,93.29
2018-09-19T06:38:44.782Z,95.26
2018-09-19T06:39:44.836Z,98.34
2018-09-19T06:40:44.897Z,99.99
2018-09-19T06:41:44.841Z,99.99
2018-09-19T06:42:44.854Z,99.99
2018-09-19T06:43:44.876Z,99.99
2018-09-19T06:44:44.903Z,99.99
2018-09-19T06:45:44.981Z,99.99
2018-09-19T06:46:44.964Z,99.99
2018-09-19T06:47:44.956Z,99.99
2018-09-19T06:48:44.991Z,99.99
2018-09-19T06:49:44.997Z,99.99
2018-09-19T06:50:45.015Z,99.99
2018-09-19T06:51:45.039Z,99.99
2018-09-19T06:52:45.067Z,99.99
2018-09-19T06:53:45.080Z,99.99
2018-09-19T06:54:45.104Z,99.99
2018-09-19T06:55:45.124Z,99.99
2018-09-19T06:56:45.142Z,99.99
2018-09-19T06:59:41.309Z,99.99
